Time;durP1;ratioP1;P1;durP2;ratioP2;P2;SDS_P1;SDS_P2;PMS_P1;PMS_P2;Temp;Humidity;BMP_temperature;BMP_pressure;BME280_temperature;BME280_humidity;BME280_pressure;Samples;Min_cycle;Max_cycle;Signal;HPM_P1;HPM_P2
2022/03/08 00:00:28;;;;;;;6.65;3.70;;;-1.60;99.90;;;;;;5070710;28;20892;-84
2022/03/08 00:02:57;;;;;;;4.35;3.42;;;-1.70;99.90;;;;;;5050955;28;20457;-84
2022/03/08 00:05:23;;;;;;;5.53;3.65;;;-1.60;99.90;;;;;;5066750;28;20462;-84
2022/03/08 00:07:50;;;;;;;7.60;4.00;;;-1.70;99.90;;;;;;5088075;28;20438;-85
2022/03/08 00:10:16;;;;;;;4.25;3.60;;;-1.60;99.90;;;;;;5086037;28;20373;-83
2022/03/08 00:12:43;;;;;;;4.68;3.80;;;-1.70;99.90;;;;;;5070681;28;20432;-84
2022/03/08 00:15:12;;;;;;;4.43;3.83;;;-1.60;99.90;;;;;;5068651;28;20728;-84
2022/03/08 00:17:38;;;;;;;4.53;3.80;;;-1.70;99.90;;;;;;5070635;28;20392;-84
2022/03/08 00:20:06;;;;;;;4.43;3.63;;;-1.80;99.90;;;;;;5088165;28;21109;-84
2022/03/08 00:22:33;;;;;;;4.80;3.60;;;-1.80;99.90;;;;;;5088317;28;20372;-84
2022/03/08 00:25:01;;;;;;;4.68;3.75;;;-1.80;99.90;;;;;;5074935;28;20440;-84
2022/03/08 00:27:28;;;;;;;4.53;3.80;;;-1.80;99.90;;;;;;5068400;28;20390;-84
2022/03/08 00:29:53;;;;;;;6.10;3.67;;;-1.80;99.90;;;;;;5050524;28;20398;-84
2022/03/08 00:32:19;;;;;;;3.67;3.30;;;-1.80;99.90;;;;;;5051334;28;20406;-84
2022/03/08 00:34:44;;;;;;;4.07;3.20;;;-1.70;99.90;;;;;;5084831;28;20384;-84
2022/03/08 00:37:10;;;;;;;4.78;3.88;;;-1.80;99.90;;;;;;5067044;28;20388;-84
2022/03/08 00:39:36;;;;;;;5.32;3.70;;;-1.70;99.90;;;;;;5050571;28;20425;-85
2022/03/08 00:42:02;;;;;;;4.27;3.23;;;-1.90;99.90;;;;;;5050455;28;20837;-84
2022/03/08 00:44:27;;;;;;;4.32;3.17;;;-1.90;99.90;;;;;;5054819;28;20390;-84
2022/03/08 00:46:53;;;;;;;4.35;3.40;;;-2.00;99.90;;;;;;5067874;28;20394;-85
2022/03/08 00:49:19;;;;;;;3.60;3.28;;;-2.00;99.90;;;;;;5067170;28;20432;-84
2022/03/08 00:51:44;;;;;;;4.43;3.25;;;-2.10;99.90;;;;;;5052428;28;20385;-85
2022/03/08 00:54:10;;;;;;;6.75;3.58;;;-2.10;99.90;;;;;;5067859;28;20412;-84
2022/03/08 00:56:36;;;;;;;4.53;3.28;;;-2.10;99.90;;;;;;5050225;28;20385;-84
2022/03/08 00:59:01;;;;;;;4.37;3.57;;;-2.20;99.90;;;;;;5068160;28;20507;-84
2022/03/08 01:01:27;;;;;;;4.10;3.30;;;-2.20;99.90;;;;;;5054121;28;20386;-84
2022/03/08 01:03:52;;;;;;;4.13;3.67;;;-2.20;99.90;;;;;;5074607;28;20719;-83
2022/03/08 01:06:18;;;;;;;6.37;3.60;;;-2.30;99.90;;;;;;5064402;28;20402;-84
2022/03/08 01:08:44;;;;;;;5.28;3.75;;;-2.30;99.90;;;;;;5050404;28;20469;-84
2022/03/08 01:11:10;;;;;;;5.03;3.77;;;-2.30;99.90;;;;;;5060470;28;20431;-85
2022/03/08 01:13:35;;;;;;;4.10;3.40;;;-2.30;99.90;;;;;;5055683;28;20410;-84
2022/03/08 01:16:01;;;;;;;4.60;3.60;;;-2.40;99.90;;;;;;5072751;28;20386;-84
2022/03/08 01:18:27;;;;;;;4.70;3.50;;;-2.40;99.90;;;;;;5049939;28;20370;-84
2022/03/08 01:20:53;;;;;;;5.17;3.67;;;-2.40;99.90;;;;;;5050681;28;20402;-84
2022/03/08 01:23:18;;;;;;;4.18;3.53;;;-2.40;99.90;;;;;;5067824;28;20527;-85
2022/03/08 01:25:44;;;;;;;5.45;4.00;;;-2.40;99.90;;;;;;5050290;28;20477;-84
2022/03/08 01:28:09;;;;;;;5.07;3.60;;;-2.40;99.90;;;;;;5069887;28;20883;-84
2022/03/08 01:30:35;;;;;;;4.60;3.73;;;-2.20;99.90;;;;;;5074545;28;20429;-84
2022/03/08 01:33:01;;;;;;;6.67;4.03;;;-2.20;99.90;;;;;;5071375;28;20890;-84
2022/03/08 01:35:26;;;;;;;4.03;3.63;;;-2.30;99.90;;;;;;5058126;28;20411;-85
2022/03/08 01:37:53;;;;;;;4.40;3.97;;;-2.40;99.90;;;;;;5054276;28;20397;-84
2022/03/08 01:40:19;;;;;;;4.15;3.67;;;-2.50;99.90;;;;;;5074995;28;20385;-84
2022/03/08 01:42:47;;;;;;;4.75;3.60;;;-2.40;99.90;;;;;;5083270;28;20378;-84
2022/03/08 01:45:15;;;;;;;4.97;3.65;;;-2.50;99.90;;;;;;5072549;28;20386;-84
2022/03/08 01:47:41;;;;;;;4.38;3.40;;;-2.60;99.90;;;;;;5073493;28;20430;-83
2022/03/08 01:50:08;;;;;;;3.88;3.45;;;-2.60;99.90;;;;;;5077680;28;20802;-83
2022/03/08 01:52:34;;;;;;;4.03;3.60;;;-2.70;99.90;;;;;;5076288;28;21022;-83
2022/03/08 01:55:00;;;;;;;4.60;3.90;;;-2.70;99.90;;;;;;5069801;28;20465;-84
2022/03/08 01:57:25;;;;;;;4.68;4.07;;;-2.70;99.90;;;;;;5071849;28;20468;-84
2022/03/08 01:59:52;;;;;;;5.70;4.20;;;-2.70;99.90;;;;;;5091500;28;20363;-84
2022/03/08 02:02:19;;;;;;;5.95;3.92;;;-2.70;99.90;;;;;;5089456;28;20395;-85
2022/03/08 02:04:45;;;;;;;5.90;4.05;;;-2.70;99.90;;;;;;5064552;28;20430;-84
2022/03/08 02:07:12;;;;;;;5.30;3.88;;;-2.70;99.90;;;;;;5071470;28;20398;-84
2022/03/08 02:09:37;;;;;;;6.75;4.20;;;-2.70;99.90;;;;;;5054481;28;20378;-83
2022/03/08 02:12:05;;;;;;;8.13;4.50;;;-2.70;99.90;;;;;;5087750;28;20893;-83
2022/03/08 02:14:30;;;;;;;6.55;4.55;;;-2.80;99.90;;;;;;5055681;28;20394;-84
2022/03/08 02:16:57;;;;;;;6.77;4.70;;;-2.80;99.90;;;;;;5082271;28;21296;-84
2022/03/08 02:19:22;;;;;;;5.65;4.53;;;-2.90;99.90;;;;;;5072285;28;20393;-85
2022/03/08 02:21:50;;;;;;;6.60;4.10;;;-2.90;99.90;;;;;;5072769;28;20409;-84
2022/03/08 02:24:16;;;;;;;7.00;4.50;;;-3.00;99.90;;;;;;5060069;28;20480;-84
2022/03/08 02:26:42;;;;;;;5.10;4.15;;;-2.90;99.90;;;;;;5092182;28;20411;-85
2022/03/08 02:29:08;;;;;;;6.53;4.53;;;-3.00;99.90;;;;;;5060158;28;20462;-84
2022/03/08 02:31:34;;;;;;;6.35;4.07;;;-3.00;99.90;;;;;;5055783;28;20418;-85
2022/03/08 02:34:00;;;;;;;7.38;4.40;;;-3.00;99.90;;;;;;5076871;28;20426;-84
2022/03/08 02:36:27;;;;;;;6.20;4.43;;;-3.00;99.90;;;;;;5068971;28;20465;-83
2022/03/08 02:38:53;;;;;;;4.85;3.95;;;-3.00;99.90;;;;;;5054551;28;20374;-83
2022/03/08 02:41:18;;;;;;;5.18;4.03;;;-3.00;99.90;;;;;;5055665;28;20392;-83
2022/03/08 02:43:44;;;;;;;5.82;4.05;;;-3.00;99.90;;;;;;5080384;28;20412;-84
2022/03/08 02:46:10;;;;;;;7.07;4.35;;;-3.10;99.90;;;;;;5092402;28;20416;-84
2022/03/08 02:48:37;;;;;;;5.70;4.07;;;-3.10;99.90;;;;;;5073307;28;20401;-84
2022/03/08 02:51:03;;;;;;;6.75;4.53;;;-3.10;99.90;;;;;;5058377;28;20401;-84
2022/03/08 02:53:29;;;;;;;5.50;4.47;;;-3.10;99.90;;;;;;5077789;28;20402;-84
2022/03/08 02:55:55;;;;;;;4.78;4.25;;;-3.10;99.90;;;;;;5060923;28;20389;-83
2022/03/08 02:58:20;;;;;;;5.70;4.27;;;-3.10;99.90;;;;;;5070589;28;20390;-84
2022/03/08 03:00:46;;;;;;;6.77;4.50;;;-3.10;99.90;;;;;;5080069;28;20396;-85
2022/03/08 03:03:12;;;;;;;7.03;5.38;;;-3.10;99.90;;;;;;5080225;28;20388;-84
2022/03/08 03:05:38;;;;;;;6.80;5.43;;;-3.10;99.90;;;;;;5096610;28;20381;-84
2022/03/08 03:08:05;;;;;;;6.88;5.53;;;-3.10;99.90;;;;;;5097097;28;20432;-85
2022/03/08 03:10:31;;;;;;;7.85;7.05;;;-3.20;99.90;;;;;;5081231;28;20389;-85
2022/03/08 03:12:58;;;;;;;8.07;6.53;;;-3.10;99.90;;;;;;5082602;28;20397;-85
2022/03/08 03:15:25;;;;;;;7.95;6.18;;;-3.20;99.90;;;;;;5100460;28;20400;-85
2022/03/08 03:17:51;;;;;;;7.47;5.80;;;-3.20;99.90;;;;;;5099060;28;20448;-84
2022/03/08 03:20:19;;;;;;;7.35;5.40;;;-3.20;99.90;;;;;;5070124;28;20394;-85
2022/03/08 03:22:46;;;;;;;6.32;4.85;;;-3.20;99.90;;;;;;5063119;28;20811;-85
2022/03/08 03:25:13;;;;;;;7.82;5.70;;;-3.20;99.90;;;;;;5065507;28;20394;-84
2022/03/08 03:27:39;;;;;;;5.25;4.25;;;-3.20;99.90;;;;;;5062275;28;20390;-84
2022/03/08 03:30:07;;;;;;;6.50;4.97;;;-3.20;99.90;;;;;;5079207;28;20389;-85
2022/03/08 03:32:33;;;;;;;5.07;4.50;;;-3.30;99.90;;;;;;5062911;28;20394;-84
2022/03/08 03:35:00;;;;;;;5.55;4.13;;;-3.20;99.90;;;;;;5061587;28;20376;-84
2022/03/08 03:37:26;;;;;;;5.18;4.10;;;-3.20;99.90;;;;;;5088394;28;20434;-83
2022/03/08 03:39:51;;;;;;;5.30;4.40;;;-3.20;99.90;;;;;;5098847;28;20384;-85
2022/03/08 03:42:17;;;;;;;6.00;4.30;;;-3.30;99.90;;;;;;5097988;28;20452;-85
2022/03/08 03:44:42;;;;;;;6.10;4.70;;;-3.30;99.90;;;;;;5078782;28;20380;-84
2022/03/08 03:47:08;;;;;;;5.97;4.93;;;-3.30;99.90;;;;;;5063963;28;20489;-84
2022/03/08 03:49:34;;;;;;;5.90;4.60;;;-3.30;99.90;;;;;;5080068;28;20398;-84
2022/03/08 03:52:00;;;;;;;5.43;4.20;;;-3.30;99.90;;;;;;5097950;28;20443;-84
2022/03/08 03:54:25;;;;;;;4.60;3.97;;;-3.30;99.90;;;;;;5098162;28;20431;-83
2022/03/08 03:56:51;;;;;;;5.27;4.50;;;-3.30;99.90;;;;;;5059730;28;20418;-85
2022/03/08 03:59:17;;;;;;;6.00;4.53;;;-3.40;99.90;;;;;;5058275;28;20386;-84
2022/03/08 04:01:42;;;;;;;5.30;4.80;;;-3.40;99.90;;;;;;5064805;28;20503;-84
2022/03/08 04:04:08;;;;;;;4.67;4.23;;;-3.40;99.90;;;;;;5078230;28;20381;-84
2022/03/08 04:06:34;;;;;;;5.47;4.37;;;-3.40;99.90;;;;;;5060735;28;20468;-85
2022/03/08 04:09:00;;;;;;;5.55;4.40;;;-3.40;99.90;;;;;;5095281;28;20395;-84
2022/03/08 04:11:26;;;;;;;5.13;4.20;;;-3.40;99.90;;;;;;5078998;28;20375;-84
2022/03/08 04:13:52;;;;;;;5.43;4.50;;;-3.40;99.90;;;;;;5096838;28;20396;-84
2022/03/08 04:16:17;;;;;;;5.47;4.30;;;-3.50;99.90;;;;;;5078545;28;20389;-85
2022/03/08 04:18:43;;;;;;;5.57;4.33;;;-3.40;99.90;;;;;;5054215;28;20409;-84
2022/03/08 04:21:08;;;;;;;5.50;4.57;;;-3.40;99.90;;;;;;5071079;28;20449;-84
2022/03/08 04:23:34;;;;;;;6.32;4.63;;;-3.40;99.90;;;;;;5078943;28;21020;-84
2022/03/08 04:26:00;;;;;;;5.43;4.70;;;-3.50;99.90;;;;;;5079199;28;20878;-84
2022/03/08 04:28:26;;;;;;;5.80;4.53;;;-3.50;99.90;;;;;;5053134;28;20402;-84
2022/03/08 04:30:51;;;;;;;5.63;4.63;;;-3.50;99.90;;;;;;5071903;28;21223;-84
2022/03/08 04:33:17;;;;;;;6.00;4.37;;;-3.50;99.90;;;;;;5071301;28;20499;-84
2022/03/08 04:35:43;;;;;;;5.90;4.70;;;-3.50;99.90;;;;;;5081040;28;20429;-83
2022/03/08 04:38:08;;;;;;;6.90;4.60;;;-3.40;99.90;;;;;;5092071;28;20408;-83
2022/03/08 04:40:34;;;;;;;6.75;4.88;;;-3.40;99.90;;;;;;5074349;28;20384;-84
2022/03/08 04:43:00;;;;;;;5.13;4.63;;;-3.40;99.90;;;;;;5063863;28;20428;-84
2022/03/08 04:45:26;;;;;;;6.00;4.93;;;-3.40;99.90;;;;;;5056550;28;20451;-83
2022/03/08 04:47:51;;;;;;;5.40;4.83;;;-3.40;99.90;;;;;;5055649;28;20382;-84
2022/03/08 04:50:17;;;;;;;5.80;4.70;;;-3.40;99.90;;;;;;5077794;28;20398;-84
2022/03/08 04:52:44;;;;;;;5.50;5.00;;;-3.30;99.90;;;;;;5060602;28;20405;-85
2022/03/08 04:55:10;;;;;;;5.55;4.75;;;-3.40;99.90;;;;;;5082759;28;20440;-83
2022/03/08 04:57:36;;;;;;;5.95;4.63;;;-3.50;99.90;;;;;;5077587;28;20419;-85
2022/03/08 05:00:04;;;;;;;5.60;4.90;;;-3.50;99.90;;;;;;5070845;28;20407;-83
2022/03/08 05:02:30;;;;;;;7.75;4.82;;;-3.50;99.90;;;;;;5080559;28;20906;-83
2022/03/08 05:04:56;;;;;;;5.30;4.35;;;-3.60;99.90;;;;;;5101178;28;20372;-84
2022/03/08 05:07:22;;;;;;;5.40;4.40;;;-3.60;99.90;;;;;;5082568;28;20373;-84
2022/03/08 05:09:48;;;;;;;5.32;4.38;;;-3.70;99.90;;;;;;5066087;28;21167;-83
2022/03/08 05:12:14;;;;;;;4.65;4.15;;;-3.70;99.90;;;;;;5062571;28;20414;-84
2022/03/08 05:14:40;;;;;;;5.78;4.70;;;-3.80;99.90;;;;;;5087178;28;20396;-86
2022/03/08 05:17:05;;;;;;;4.93;4.40;;;-3.80;99.90;;;;;;5096765;28;20401;-83
2022/03/08 05:19:31;;;;;;;5.87;4.70;;;-3.70;99.90;;;;;;5083033;28;20437;-84
2022/03/08 05:21:57;;;;;;;5.70;4.50;;;-3.80;99.90;;;;;;5080938;28;20402;-84
2022/03/08 05:24:22;;;;;;;7.20;4.40;;;-3.70;99.90;;;;;;5066904;28;20413;-83
2022/03/08 05:26:48;;;;;;;5.53;4.70;;;-3.80;99.90;;;;;;5090310;28;20465;-82
2022/03/08 05:29:14;;;;;;;5.68;5.00;;;-3.80;99.90;;;;;;5080972;28;20382;-83
2022/03/08 05:31:40;;;;;;;7.00;5.00;;;-3.80;99.90;;;;;;5063304;28;20374;-83
2022/03/08 05:34:05;;;;;;;5.72;4.60;;;-3.80;99.90;;;;;;5080079;28;20437;-83
2022/03/08 05:36:31;;;;;;;5.65;4.45;;;-3.60;99.90;;;;;;5093622;28;20750;-83
2022/03/08 05:38:57;;;;;;;6.80;4.72;;;-3.50;99.90;;;;;;5080525;28;20495;-84
2022/03/08 05:41:28;;;;;;;6.90;5.40;;;-3.40;99.90;;;;;;5082937;28;20497;-82
2022/03/08 05:43:57;;;;;;;5.18;4.68;;;-3.60;99.90;;;;;;5081624;28;20564;-84
2022/03/08 05:46:22;;;;;;;5.97;4.80;;;-3.70;99.90;;;;;;5086544;28;20404;-84
2022/03/08 05:48:48;;;;;;;5.40;4.70;;;-3.70;99.90;;;;;;5088974;28;20413;-84
2022/03/08 05:51:14;;;;;;;6.70;5.37;;;-3.70;99.90;;;;;;5081803;28;20393;-83
2022/03/08 05:53:39;;;;;;;6.80;4.67;;;-3.70;99.90;;;;;;5064936;28;20433;-83
2022/03/08 05:56:05;;;;;;;6.33;5.13;;;-3.70;99.90;;;;;;5098750;28;20381;-84
2022/03/08 05:58:31;;;;;;;6.37;5.30;;;-3.70;99.90;;;;;;5083530;28;20407;-84
2022/03/08 06:00:56;;;;;;;6.70;5.03;;;-3.60;99.90;;;;;;5082070;28;20975;-84
2022/03/08 06:03:22;;;;;;;5.97;5.07;;;-3.60;99.90;;;;;;5082395;28;20421;-84
2022/03/08 06:05:47;;;;;;;7.50;5.13;;;-3.60;99.90;;;;;;5064185;28;20390;-85
2022/03/08 06:08:14;;;;;;;6.30;5.40;;;-3.60;99.90;;;;;;5064022;28;20544;-85
2022/03/08 06:10:40;;;;;;;6.35;5.50;;;-3.50;99.90;;;;;;5065293;28;20384;-85
2022/03/08 06:13:06;;;;;;;7.70;5.50;;;-3.40;99.90;;;;;;5067865;28;20425;-84
2022/03/08 06:15:31;;;;;;;5.97;5.20;;;-3.40;99.90;;;;;;5077427;28;20378;-85
2022/03/08 06:17:57;;;;;;;9.40;7.97;;;-3.40;99.90;;;;;;5078692;28;20432;-84
2022/03/08 06:20:23;;;;;;;9.33;8.27;;;-3.40;99.90;;;;;;5061638;28;20488;-85
2022/03/08 06:22:48;;;;;;;8.70;7.90;;;-3.30;99.90;;;;;;5060586;28;20378;-84
2022/03/08 06:25:14;;;;;;;10.13;6.77;;;-3.30;99.90;;;;;;5060542;28;20402;-84
2022/03/08 06:27:40;;;;;;;7.63;5.88;;;-3.20;99.90;;;;;;5060112;28;20481;-85
2022/03/08 06:30:06;;;;;;;6.07;4.93;;;-3.10;99.90;;;;;;5071859;28;20391;-84
2022/03/08 06:32:32;;;;;;;7.75;4.93;;;-3.00;99.90;;;;;;5078503;28;20404;-84
2022/03/08 06:34:57;;;;;;;8.55;5.53;;;-2.80;99.90;;;;;;5082028;28;20394;-85
2022/03/08 06:37:23;;;;;;;27.90;11.80;;;-2.60;99.90;;;;;;5058064;28;20801;-84
2022/03/08 06:39:49;;;;;;;58.67;23.17;;;-2.30;99.90;;;;;;5075954;28;20407;-84
2022/03/08 06:42:16;;;;;;;51.00;22.80;;;-2.20;99.90;;;;;;5071814;28;20393;-84
2022/03/08 06:44:43;;;;;;;48.60;19.50;;;-1.90;99.90;;;;;;5054788;28;20386;-84
2022/03/08 06:47:09;;;;;;;37.67;17.00;;;-2.10;99.90;;;;;;5054368;28;20378;-85
2022/03/08 06:49:38;;;;;;;87.68;17.08;;;-1.00;99.90;;;;;;5053941;28;20490;-84
2022/03/08 06:52:05;;;;;;;30.10;11.82;;;-1.30;99.90;;;;;;5072850;28;20420;-85
2022/03/08 06:54:31;;;;;;;17.87;9.97;;;-0.90;99.90;;;;;;5055031;28;20467;-85
2022/03/08 06:56:57;;;;;;;20.10;9.50;;;-0.80;99.90;;;;;;5056349;28;20374;-85
2022/03/08 06:59:23;;;;;;;19.87;10.60;;;-0.60;99.90;;;;;;5074261;28;20385;-85
2022/03/08 07:01:49;;;;;;;15.27;10.07;;;-0.40;99.90;;;;;;5072570;28;20374;-86
2022/03/08 07:04:15;;;;;;;13.87;9.57;;;-0.30;99.90;;;;;;5072241;28;20416;-85
2022/03/08 07:06:40;;;;;;;13.73;10.17;;;-0.10;99.90;;;;;;5054579;28;20385;-86
2022/03/08 07:09:06;;;;;;;15.30;11.33;;;0.10;99.90;;;;;;5070811;28;20401;-87
2022/03/08 07:11:35;;;;;;;16.40;11.35;;;0.30;99.90;;;;;;5052764;28;20895;-86
2022/03/08 07:14:01;;;;;;;17.07;12.47;;;0.50;99.90;;;;;;5052362;28;20493;-87
2022/03/08 07:16:26;;;;;;;20.93;13.67;;;0.70;99.90;;;;;;5052523;28;20453;-87
2022/03/08 07:18:52;;;;;;;23.50;13.30;;;0.90;99.90;;;;;;5066744;28;20463;-87
2022/03/08 07:21:17;;;;;;;19.93;12.60;;;1.00;99.90;;;;;;5091071;28;20395;-85
2022/03/08 07:23:43;;;;;;;15.70;12.73;;;1.20;99.90;;;;;;5061095;28;20394;-86
2022/03/08 07:26:09;;;;;;;17.83;12.13;;;1.40;99.90;;;;;;5068634;28;20418;-86
2022/03/08 07:28:35;;;;;;;19.38;12.90;;;1.60;99.90;;;;;;5069974;28;20396;-87
2022/03/08 07:31:01;;;;;;;18.02;12.43;;;1.80;99.90;;;;;;5069288;28;20374;-87
2022/03/08 07:33:29;;;;;;;17.83;12.30;;;2.00;99.90;;;;;;5072532;28;20410;-87
2022/03/08 07:35:55;;;;;;;18.20;11.88;;;2.10;99.90;;;;;;5073580;28;20370;-86
2022/03/08 07:38:21;;;;;;;16.55;11.90;;;2.30;99.90;;;;;;5073519;28;20378;-87
2022/03/08 07:40:47;;;;;;;13.63;10.00;;;2.40;99.90;;;;;;5056110;28;20398;-88
2022/03/08 07:43:12;;;;;;;16.10;10.65;;;2.50;99.90;;;;;;5060774;28;20378;-87
2022/03/08 07:45:38;;;;;;;15.85;10.00;;;2.60;99.90;;;;;;5062783;28;20945;-87
2022/03/08 07:48:05;;;;;;;13.30;8.85;;;2.70;99.90;;;;;;5057891;28;20383;-86
2022/03/08 07:50:32;;;;;;;11.60;8.02;;;2.80;99.90;;;;;;5088943;28;20461;-87
2022/03/08 07:52:59;;;;;;;10.68;7.72;;;3.00;99.90;;;;;;5088652;28;20901;-88
2022/03/08 07:55:26;;;;;;;17.23;8.15;;;3.30;99.90;;;;;;5069989;28;20384;-87
2022/03/08 07:57:52;;;;;;;17.80;7.72;;;3.40;99.90;;;;;;5052330;28;20800;-87
2022/03/08 08:00:18;;;;;;;13.90;7.38;;;3.60;99.90;;;;;;5051358;28;20395;-88
2022/03/08 08:02:43;;;;;;;8.63;6.30;;;3.60;99.90;;;;;;5051671;28;20371;-87
2022/03/08 08:05:09;;;;;;;8.93;6.30;;;3.70;99.90;;;;;;5051143;28;20381;-87
2022/03/08 08:07:35;;;;;;;11.63;6.60;;;3.90;99.90;;;;;;5068696;28;20453;-87
2022/03/08 08:10:01;;;;;;;8.82;6.35;;;4.10;99.90;;;;;;5071401;28;20901;-87
2022/03/08 08:12:27;;;;;;;8.70;6.22;;;4.30;99.90;;;;;;5089354;28;20367;-86
2022/03/08 08:14:52;;;;;;;8.68;6.57;;;4.50;99.90;;;;;;5070984;28;20364;-86
2022/03/08 08:17:18;;;;;;;10.30;6.30;;;4.60;99.90;;;;;;5072851;28;21018;-86
2022/03/08 08:19:44;;;;;;;9.30;6.50;;;4.70;99.90;;;;;;5069709;28;20370;-85
2022/03/08 08:22:10;;;;;;;9.73;6.65;;;4.80;99.90;;;;;;5051192;28;20473;-86
2022/03/08 08:24:35;;;;;;;7.65;6.15;;;5.00;99.90;;;;;;5069290;28;20412;-82
2022/03/08 08:27:01;;;;;;;9.43;6.72;;;5.20;99.90;;;;;;5051152;28;20390;-82
2022/03/08 08:29:27;;;;;;;9.68;7.50;;;5.40;99.90;;;;;;5069288;28;20374;-83
2022/03/08 08:31:52;;;;;;;9.33;7.83;;;5.60;99.90;;;;;;5051192;28;20382;-83
2022/03/08 08:34:19;;;;;;;10.93;7.50;;;5.70;99.90;;;;;;5050629;28;20394;-82
2022/03/08 08:36:46;;;;;;;8.43;7.10;;;5.80;99.90;;;;;;5063730;28;20557;-82
2022/03/08 08:39:14;;;;;;;9.98;7.18;;;5.90;99.90;;;;;;5073322;28;20373;-83
2022/03/08 08:41:42;;;;;;;8.55;7.00;;;6.10;99.90;;;;;;5076747;28;20432;-82
2022/03/08 08:44:08;;;;;;;10.02;7.70;;;6.30;99.90;;;;;;5070511;28;20383;-83
2022/03/08 08:46:34;;;;;;;9.27;6.38;;;6.40;99.90;;;;;;5070430;28;20376;-82
2022/03/08 08:49:00;;;;;;;8.00;5.85;;;6.40;99.90;;;;;;5070451;28;20468;-82
2022/03/08 08:51:25;;;;;;;8.57;6.13;;;6.50;99.90;;;;;;5077686;28;20481;-82
2022/03/08 08:53:51;;;;;;;6.90;5.03;;;6.60;99.90;;;;;;5060411;28;20413;-83
2022/03/08 08:56:17;;;;;;;9.57;5.82;;;6.70;99.90;;;;;;5052734;28;20393;-82
2022/03/08 08:58:42;;;;;;;6.75;4.88;;;6.90;99.90;;;;;;5051436;28;20404;-83
2022/03/08 09:01:08;;;;;;;7.23;4.73;;;7.10;99.90;;;;;;5073921;28;20425;-84
2022/03/08 09:03:33;;;;;;;7.03;4.60;;;7.20;99.90;;;;;;5031159;28;20380;-83
2022/03/08 09:05:59;;;;;;;6.47;4.45;;;7.40;99.90;;;;;;5041188;28;20378;-83
2022/03/08 09:08:25;;;;;;;7.82;5.10;;;7.40;99.90;;;;;;5070223;28;20418;-83
2022/03/08 09:10:52;;;;;;;6.40;5.07;;;7.40;99.90;;;;;;5062476;28;20378;-83
2022/03/08 09:13:18;;;;;;;7.43;4.80;;;7.30;99.90;;;;;;5051472;28;20497;-83
2022/03/08 09:15:44;;;;;;;6.30;4.72;;;7.20;99.90;;;;;;5052057;28;20382;-84
2022/03/08 09:18:09;;;;;;;6.73;5.20;;;7.30;99.90;;;;;;5068811;28;20668;-83
2022/03/08 09:20:35;;;;;;;7.93;4.93;;;7.50;99.90;;;;;;5050773;28;20887;-83
2022/03/08 09:23:01;;;;;;;13.37;5.10;;;7.70;99.90;;;;;;5068020;28;20390;-84
2022/03/08 09:25:27;;;;;;;6.38;4.93;;;7.90;99.90;;;;;;5050533;28;20379;-83
2022/03/08 09:27:53;;;;;;;10.10;5.10;;;8.10;99.90;;;;;;5049989;28;20824;-83
2022/03/08 09:30:19;;;;;;;8.85;4.60;;;7.90;99.90;;;;;;5050295;28;20455;-83
2022/03/08 09:32:45;;;;;;;7.03;4.82;;;8.20;99.90;;;;;;5067110;28;20414;-82
2022/03/08 09:35:11;;;;;;;6.63;4.70;;;8.30;99.90;;;;;;5068306;28;20469;-84
2022/03/08 09:37:36;;;;;;;8.37;4.90;;;8.30;99.90;;;;;;5054641;28;20370;-83
2022/03/08 09:40:04;;;;;;;6.55;4.40;;;8.30;99.90;;;;;;5050672;28;20389;-83
2022/03/08 09:42:30;;;;;;;6.95;4.50;;;8.20;99.90;;;;;;5050717;28;20406;-83
2022/03/08 09:44:57;;;;;;;5.40;3.87;;;8.40;99.90;;;;;;5050517;28;20717;-83
2022/03/08 09:47:23;;;;;;;8.40;3.92;;;8.50;99.90;;;;;;5050284;28;20412;-84
2022/03/08 09:49:49;;;;;;;5.05;3.08;;;8.70;99.90;;;;;;5053802;28;20459;-83
2022/03/08 09:52:15;;;;;;;3.90;3.30;;;8.90;99.90;;;;;;5053759;28;20397;-86
2022/03/08 09:54:44;;;;;;;4.45;3.13;;;9.00;99.90;;;;;;5053836;28;20402;-85
2022/03/08 09:57:12;;;;;;;7.75;3.25;;;8.90;99.90;;;;;;5071286;28;20469;-86
2022/03/08 09:59:38;;;;;;;5.32;3.15;;;9.00;99.90;;;;;;5070788;28;20495;-84
2022/03/08 10:02:04;;;;;;;4.30;2.95;;;9.10;99.90;;;;;;5047883;28;20518;-85
2022/03/08 10:04:29;;;;;;;5.33;3.50;;;9.30;99.90;;;;;;5051703;28;20453;-85
2022/03/08 10:06:57;;;;;;;5.77;3.20;;;9.50;99.90;;;;;;5051176;28;20379;-85
2022/03/08 10:09:23;;;;;;;4.32;3.25;;;9.50;99.90;;;;;;5059156;28;20420;-84
2022/03/08 10:11:54;;;;;;;8.07;3.40;;;9.60;99.90;;;;;;5051057;28;20479;-87
2022/03/08 10:14:38;;;;;;;6.07;3.28;;;9.30;99.80;;;;;;5037032;28;20413;-84
2022/03/08 10:17:06;;;;;;;4.05;3.03;;;9.30;99.80;;;;;;5057727;28;20388;-85
2022/03/08 10:19:46;;;;;;;5.57;3.33;;;9.40;99.70;;;;;;5053975;28;20473;-85
2022/03/08 10:22:25;;;;;;;9.57;3.72;;;9.50;99.80;;;;;;5052776;28;20903;-84
2022/03/08 10:24:52;;;;;;;4.65;3.25;;;9.60;99.10;;;;;;5069397;28;20379;-84
2022/03/08 10:27:19;;;;;;;6.55;3.65;;;9.50;99.80;;;;;;5077421;28;20889;-84
2022/03/08 10:29:49;;;;;;;4.75;3.10;;;9.50;99.70;;;;;;5080142;28;20421;-83
2022/03/08 10:32:20;;;;;;;4.57;3.30;;;9.50;98.70;;;;;;5051038;28;20393;-84
2022/03/08 10:34:49;;;;;;;6.65;3.80;;;9.50;99.30;;;;;;5067918;28;20947;-84
2022/03/08 10:37:23;;;;;;;8.03;3.80;;;9.40;99.00;;;;;;5074239;28;20771;-84
2022/03/08 10:40:02;;;;;;;4.43;2.80;;;9.40;99.70;;;;;;5065530;28;20385;-84
2022/03/08 10:42:33;;;;;;;5.95;3.20;;;9.40;99.90;;;;;;5090757;28;20432;-82
2022/03/08 10:45:14;;;;;;;5.60;2.97;;;9.30;99.90;;;;;;5075022;28;20853;-82
2022/03/08 10:47:44;;;;;;;5.85;3.85;;;9.40;99.90;;;;;;5033447;28;20430;-82
2022/03/08 10:50:16;;;;;;;4.85;3.03;;;9.40;99.50;;;;;;5061767;28;20554;-81
2022/03/08 10:52:44;;;;;;;5.28;3.30;;;9.40;99.70;;;;;;5091300;28;20866;-84
2022/03/08 10:55:24;;;;;;;4.57;3.38;;;9.70;99.10;;;;;;5082896;28;20600;-85
2022/03/08 10:57:54;;;;;;;4.88;3.42;;;9.60;98.00;;;;;;5053199;28;20428;-83
2022/03/08 11:00:24;;;;;;;5.47;3.50;;;9.60;98.70;;;;;;5069513;28;20716;-84
2022/03/08 11:02:57;;;;;;;5.67;3.60;;;9.70;97.50;;;;;;5055150;28;20442;-84
2022/03/08 11:05:29;;;;;;;7.93;4.30;;;9.70;98.30;;;;;;5059146;28;20388;-85
2022/03/08 11:07:57;;;;;;;9.35;4.60;;;9.70;99.90;;;;;;5081366;28;20386;-84
2022/03/08 11:10:23;;;;;;;9.25;4.22;;;9.60;99.90;;;;;;5053394;28;20468;-85
2022/03/08 11:12:49;;;;;;;8.23;4.53;;;9.80;99.70;;;;;;5066427;28;20472;-85
2022/03/08 11:15:17;;;;;;;6.05;3.95;;;10.00;99.90;;;;;;5070798;28;20868;-84
2022/03/08 11:17:44;;;;;;;9.45;4.10;;;10.00;99.90;;;;;;5085491;28;20412;-83
2022/03/08 11:20:12;;;;;;;5.90;3.58;;;10.00;98.20;;;;;;5091539;28;20449;-81
2022/03/08 11:22:40;;;;;;;6.25;3.58;;;9.80;98.90;;;;;;5074112;28;20396;-82
2022/03/08 11:25:08;;;;;;;6.90;3.78;;;9.80;99.30;;;;;;5091588;28;20376;-82
2022/03/08 11:27:36;;;;;;;4.93;3.22;;;9.80;99.80;;;;;;5065602;28;20421;-83
2022/03/08 11:30:02;;;;;;;6.28;3.78;;;9.90;98.90;;;;;;5073497;28;20392;-85
2022/03/08 11:33:02;;;;;;;5.13;3.70;;;9.80;98.80;;;;;;5072333;28;20895;-85
2022/03/08 11:35:53;;;;;;;6.13;3.15;;;9.80;99.60;;;;;;5073081;28;20470;-86
2022/03/08 11:38:19;;;;;;;6.85;3.08;;;9.90;99.80;;;;;;5009074;28;20605;-83
2022/03/08 11:40:53;;;;;;;5.97;4.15;;;9.90;98.10;;;;;;5080182;28;20374;-85
2022/03/08 11:43:21;;;;;;;5.10;3.50;;;9.80;98.80;;;;;;5062970;28;20389;-85
2022/03/08 11:45:48;;;;;;;7.55;3.95;;;9.90;99.10;;;;;;5058207;28;20406;-85
2022/03/08 11:48:19;;;;;;;4.97;3.58;;;10.00;99.80;;;;;;5090248;28;20441;-85
2022/03/08 11:50:44;;;;;;;5.87;3.53;;;10.00;98.60;;;;;;5091292;28;20381;-85
2022/03/08 11:53:12;;;;;;;6.10;3.73;;;9.80;99.00;;;;;;5090386;28;20407;-86
2022/03/08 11:55:43;;;;;;;5.57;3.55;;;9.80;99.10;;;;;;5090748;28;20372;-85
2022/03/08 11:58:14;;;;;;;7.03;3.92;;;9.90;99.00;;;;;;5072559;28;20402;-85
2022/03/08 12:00:52;;;;;;;4.90;3.17;;;9.80;98.70;;;;;;5052704;28;20393;-85
2022/03/08 12:03:23;;;;;;;5.95;4.00;;;9.80;98.30;;;;;;5071194;28;20758;-85
2022/03/08 12:06:06;;;;;;;5.72;3.85;;;9.80;99.30;;;;;;5069550;28;20404;-85
2022/03/08 12:08:35;;;;;;;5.57;3.60;;;9.80;99.60;;;;;;5050784;28;20418;-84
2022/03/08 12:11:07;;;;;;;8.30;4.10;;;10.00;98.50;;;;;;5070456;28;20382;-83
2022/03/08 12:13:45;;;;;;;6.18;3.75;;;9.90;98.60;;;;;;5070778;28;20408;-85
2022/03/08 12:16:13;;;;;;;5.45;3.63;;;9.80;98.70;;;;;;5083372;28;20403;-84
2022/03/08 12:18:45;;;;;;;7.45;3.72;;;9.90;98.60;;;;;;5089140;28;20416;-84
2022/03/08 12:21:17;;;;;;;18.00;4.20;;;9.90;99.10;;;;;;5089556;28;20376;-84
2022/03/08 12:24:06;;;;;;;6.53;3.70;;;9.80;98.90;;;;;;5089101;28;20881;-84
2022/03/08 12:26:51;;;;;;;7.03;3.80;;;9.80;99.10;;;;;;5057963;28;20736;-84
2022/03/08 12:29:22;;;;;;;5.35;3.72;;;10.00;98.90;;;;;;5051693;28;20790;-84
2022/03/08 12:32:01;;;;;;;5.93;3.75;;;9.90;99.00;;;;;;5051130;28;20433;-84
2022/03/08 12:34:33;;;;;;;7.60;3.85;;;9.90;98.60;;;;;;5068664;28;20417;-85
2022/03/08 12:37:10;;;;;;;8.25;3.55;;;9.80;98.40;;;;;;5068820;28;20417;-85
2022/03/08 12:39:43;;;;;;;6.35;3.40;;;9.80;98.50;;;;;;5069569;28;20438;-83
2022/03/08 12:42:35;;;;;;;7.82;3.83;;;9.70;98.60;;;;;;5076332;28;20395;-82
2022/03/08 12:45:11;;;;;;;11.15;3.47;;;9.80;99.50;;;;;;5074594;28;20880;-81
2022/03/08 12:47:55;;;;;;;6.43;3.47;;;9.90;99.20;;;;;;5053145;28;20390;-83